createdAt,value
2018-09-28T02:07:08.531Z,100.00
2018-09-28T02:08:35.350Z,100.00
2018-09-28T02:09:57.893Z,100.00
2018-09-28T02:11:25.392Z,100.00
2018-09-28T02:12:52.644Z,100.00
2018-09-28T02:14:23.931Z,100.00
2018-09-28T02:15:47.430Z,100.00
2018-09-28T02:17:18.704Z,100.00
2018-09-28T02:18:41.139Z,100.00
2018-09-28T02:20:12.224Z,100.00
2018-09-28T02:21:38.694Z,100.00
2018-09-28T02:23:05.352Z,100.00
2018-09-28T02:24:28.763Z,100.00
2018-09-28T02:25:56.144Z,100.00
2018-09-28T02:27:22.654Z,100.00
2018-09-28T02:28:50.031Z,100.00
2018-09-28T02:30:21.447Z,100.00
2018-09-28T02:31:48.570Z,100.00
2018-09-28T02:33:11.896Z,100.00
2018-09-28T02:34:39.386Z,100.00
2018-09-28T02:36:06.320Z,100.00
2018-09-28T02:37:37.623Z,100.00
2018-09-28T02:39:00.071Z,100.00
2018-09-28T02:40:26.162Z,100.00
2018-09-28T02:41:53.479Z,100.00
2018-09-28T02:43:24.846Z,100.00
2018-09-28T02:44:51.552Z,100.00
2018-09-28T02:46:18.756Z,100.00
2018-09-28T02:47:41.309Z,100.00
2018-09-28T02:49:12.575Z,100.00
2018-09-28T02:50:39.319Z,100.00
2018-09-28T02:53:29.208Z,100.00
2018-09-28T02:55:00.526Z,100.00
2018-09-28T02:56:23.708Z,100.00
2018-09-28T02:57:55.104Z,100.00
2018-09-28T02:59:18.465Z,100.00
2018-09-28T03:00:45.953Z,100.00
2018-09-28T03:02:13.422Z,100.00
2018-09-28T03:03:44.752Z,100.00
2018-09-28T03:05:12.090Z,100.00
2018-09-28T03:06:35.597Z,100.00
2018-09-28T03:08:06.151Z,100.00
2018-09-28T03:09:33.651Z,100.00
2018-09-28T03:11:00.905Z,100.00
2018-09-28T03:12:24.312Z,100.00
2018-09-28T03:13:55.774Z,100.00
2018-09-28T03:15:22.317Z,100.00
2018-09-28T03:16:49.709Z,100.00
2018-09-28T03:18:15.964Z,100.00
2018-09-28T03:19:39.099Z,100.00
2018-09-28T03:21:06.058Z,100.00
2018-09-28T03:22:36.247Z,100.00
2018-09-28T03:23:58.900Z,100.00
2018-09-28T03:25:30.341Z,100.00
2018-09-28T03:26:53.774Z,100.00
2018-09-28T03:28:24.894Z,100.00
2018-09-28T03:29:47.550Z,100.00
2018-09-28T03:31:14.862Z,100.00
2018-09-28T03:32:46.124Z,100.00
2018-09-28T03:34:13.231Z,100.00
2018-09-28T03:35:40.520Z,100.00
2018-09-28T03:37:03.816Z,100.00
2018-09-28T03:38:31.075Z,100.00
2018-09-28T03:40:02.520Z,100.00
2018-09-28T03:41:25.862Z,100.00
2018-09-28T03:42:53.276Z,100.00
2018-09-28T03:44:19.722Z,100.00
2018-09-28T03:45:47.016Z,100.00
2018-09-28T03:47:14.365Z,100.00
2018-09-28T03:48:41.805Z,100.00
2018-09-28T03:50:09.155Z,100.00
2018-09-28T03:51:36.498Z,100.00
2018-09-28T03:53:07.665Z,100.00
2018-09-28T03:54:31.101Z,100.00
2018-09-28T03:56:02.532Z,100.00
2018-09-28T03:57:25.027Z,100.00
2018-09-28T03:58:56.516Z,100.00
2018-09-28T04:00:23.760Z,100.00
2018-09-28T04:01:51.095Z,100.00
2018-09-28T04:03:14.671Z,100.00
2018-09-28T04:04:45.946Z,100.00
2018-09-28T04:06:15.941Z,100.00
2018-09-28T04:07:39.661Z,100.00
2018-09-28T04:09:05.934Z,100.00
2018-09-28T04:10:33.259Z,100.00
2018-09-28T04:12:00.545Z,100.00
2018-09-28T04:13:23.899Z,100.00
2018-09-28T04:14:50.227Z,100.00
2018-09-28T04:16:21.621Z,100.00
2018-09-28T04:17:43.954Z,100.00
2018-09-28T04:19:15.025Z,100.00
2018-09-28T04:20:42.539Z,100.00
2018-09-28T04:22:09.845Z,100.00
2018-09-28T04:23:33.073Z,100.00
2018-09-28T04:25:04.547Z,100.00
2018-09-28T04:26:28.055Z,100.00
2018-09-28T04:27:59.626Z,100.00
2018-09-28T04:29:25.811Z,100.00
2018-09-28T04:30:52.994Z,100.00
2018-09-28T04:32:16.258Z,100.00
2018-09-28T04:33:47.630Z,100.00
2018-09-28T04:35:10.771Z,100.00
2018-09-28T04:36:42.271Z,100.00
2018-09-28T04:38:05.638Z,100.00
2018-09-28T04:39:33.042Z,100.00
2018-09-28T04:41:03.712Z,100.00
2018-09-28T04:42:27.069Z,100.00
2018-09-28T04:43:58.548Z,100.00
2018-09-28T04:45:21.928Z,100.00
2018-09-28T04:46:53.247Z,100.00
2018-09-28T04:48:20.629Z,100.00
2018-09-28T04:49:47.043Z,100.00
2018-09-28T04:51:13.648Z,100.00
2018-09-28T04:52:40.594Z,100.00
2018-09-28T04:54:03.204Z,100.00
2018-09-28T04:55:30.441Z,100.00
2018-09-28T04:57:01.778Z,100.00
2018-09-28T04:58:28.016Z,100.00
2018-09-28T04:59:51.367Z,100.00
2018-09-28T05:01:18.719Z,100.00
2018-09-28T05:02:45.955Z,100.00
2018-09-28T05:04:16.393Z,100.00
2018-09-28T05:05:43.734Z,100.00
2018-09-28T05:07:07.005Z,100.00
2018-09-28T05:08:34.531Z,100.00
2018-09-28T05:10:02.009Z,100.00
2018-09-28T05:11:29.458Z,100.00
2018-09-28T05:12:56.843Z,100.00
2018-09-28T05:14:28.335Z,100.00
2018-09-28T05:15:54.401Z,100.00
2018-09-28T05:17:20.823Z,100.00
2018-09-28T05:18:47.846Z,100.00
2018-09-28T05:20:10.521Z,100.00
2018-09-28T05:21:37.713Z,100.00
2018-09-28T05:23:06.555Z,100.00
2018-09-28T05:24:34.986Z,100.00
2018-09-28T05:25:58.250Z,100.00
2018-09-28T05:27:28.629Z,100.00
2018-09-28T05:28:51.715Z,100.00
2018-09-28T05:30:23.054Z,100.00
2018-09-28T05:31:50.530Z,100.00
2018-09-28T05:33:13.654Z,100.00
2018-09-28T05:34:44.641Z,100.00
2018-09-28T05:36:11.981Z,100.00
2018-09-28T05:37:38.836Z,100.00
2018-09-28T05:39:02.169Z,100.00
2018-09-28T05:40:29.799Z,100.00
2018-09-28T05:41:56.088Z,100.00
2018-09-28T05:43:23.427Z,100.00
2018-09-28T05:44:54.768Z,100.00
2018-09-28T05:46:18.227Z,100.00
2018-09-28T05:47:49.677Z,100.00
2018-09-28T05:49:17.120Z,100.00
2018-09-28T05:50:39.226Z,100.00
2018-09-28T05:52:05.978Z,100.00
2018-09-28T05:53:32.217Z,100.00
2018-09-28T05:55:03.457Z,100.00
2018-09-28T05:56:29.718Z,100.00
2018-09-28T05:57:53.092Z,100.00
2018-09-28T05:59:24.379Z,100.00
2018-09-28T06:00:51.742Z,100.00
2018-09-28T06:02:19.001Z,100.00
2018-09-28T06:03:42.449Z,100.00
2018-09-28T06:05:13.149Z,100.00
2018-09-28T06:06:40.435Z,100.00
2018-09-28T06:08:07.880Z,100.00
2018-09-28T06:09:34.389Z,100.00
2018-09-28T06:10:57.736Z,100.00
2018-09-28T06:12:28.932Z,100.00
2018-09-28T06:13:56.131Z,100.00
2018-09-28T06:15:23.483Z,100.00
2018-09-28T06:16:50.895Z,100.00
2018-09-28T06:18:14.066Z,100.00
2018-09-28T06:19:44.189Z,100.00
2018-09-28T06:21:11.595Z,100.00
2018-09-28T06:22:38.139Z,100.00
2018-09-28T06:24:05.451Z,100.00
2018-09-28T06:25:28.879Z,100.00
2018-09-28T06:26:56.166Z,100.00
2018-09-28T06:28:23.621Z,100.00
2018-09-28T06:29:51.107Z,100.00
2018-09-28T06:31:22.507Z,100.00
2018-09-28T06:32:49.785Z,100.00
2018-09-28T06:34:13.203Z,100.00
2018-09-28T06:35:43.720Z,100.00
2018-09-28T06:37:10.792Z,100.00
2018-09-28T06:38:38.272Z,100.00
2018-09-28T06:40:01.630Z,100.00
2018-09-28T06:41:32.944Z,100.00
2018-09-28T06:42:58.867Z,100.00
2018-09-28T06:44:26.245Z,100.00
2018-09-28T06:45:49.736Z,100.00
2018-09-28T06:47:20.915Z,100.00
2018-09-28T06:48:44.114Z,100.00
2018-09-28T06:50:15.603Z,100.00
2018-09-28T06:51:38.122Z,100.00
2018-09-28T06:53:09.227Z,100.00
2018-09-28T06:56:03.097Z,100.00
2018-09-28T06:57:25.569Z,100.00
2018-09-28T06:58:56.837Z,100.00
2018-09-28T07:00:24.328Z,100.00
2018-09-28T07:01:51.572Z,100.00
2018-09-28T07:03:18.225Z,100.00
2018-09-28T07:04:40.574Z,100.00
2018-09-28T07:06:11.897Z,100.00
2018-09-28T07:09:05.526Z,100.00
2018-09-28T07:10:32.748Z,100.00
2018-09-28T07:11:56.231Z,100.00
2018-09-28T07:13:27.489Z,100.00
2018-09-28T07:14:54.057Z,100.00
2018-09-28T07:16:17.427Z,100.00
2018-09-28T07:17:43.721Z,100.00
2018-09-28T07:19:11.034Z,100.00
2018-09-28T07:20:41.775Z,100.00
2018-09-28T07:22:09.164Z,100.00
2018-09-28T07:23:36.679Z,100.00
2018-09-28T07:25:03.516Z,100.00
2018-09-28T07:26:26.805Z,100.00
2018-09-28T07:27:54.218Z,100.00
2018-09-28T07:29:24.452Z,100.00
2018-09-28T07:30:47.964Z,100.00
2018-09-28T07:32:15.362Z,100.00
2018-09-28T07:33:45.821Z,100.00
2018-09-28T07:35:09.009Z,100.00
2018-09-28T07:36:40.460Z,100.00
2018-09-28T07:38:07.728Z,100.00
2018-09-28T07:39:31.095Z,100.00
2018-09-28T07:41:02.341Z,100.00
2018-09-28T07:42:25.863Z,100.00
2018-09-28T07:43:53.151Z,100.00
2018-09-28T07:45:24.613Z,100.00
2018-09-28T07:46:46.925Z,100.00
2018-09-28T07:48:14.255Z,100.00
2018-09-28T07:49:41.732Z,100.00
2018-09-28T07:51:12.872Z,100.00
2018-09-28T07:52:40.392Z,100.00
2018-09-28T07:54:03.815Z,100.00
2018-09-28T07:55:31.066Z,100.00
2018-09-28T07:56:57.847Z,100.00
2018-09-28T07:58:29.359Z,100.00
2018-09-28T07:59:56.718Z,100.00
2018-09-28T08:01:19.413Z,100.00
2018-09-28T08:02:50.897Z,100.00
2018-09-28T08:04:13.696Z,100.00
2018-09-28T08:05:40.857Z,100.00
2018-09-28T08:07:11.657Z,100.00
2018-09-28T08:08:34.783Z,100.00
2018-09-28T08:10:02.220Z,100.00
2018-09-28T08:11:33.677Z,100.00
2018-09-28T08:13:00.282Z,100.00
2018-09-28T08:15:56.102Z,100.00
2018-09-28T08:17:21.638Z,100.00
2018-09-28T08:18:49.002Z,100.00
2018-09-28T08:20:16.282Z,100.00
2018-09-28T08:21:39.257Z,100.00
2018-09-28T08:23:10.263Z,100.00
2018-09-28T08:24:37.636Z,100.00
2018-09-28T08:26:04.887Z,100.00
2018-09-28T08:27:28.318Z,100.00
2018-09-28T08:28:59.634Z,100.00
2018-09-28T08:30:27.195Z,100.00
2018-09-28T08:31:50.468Z,100.00
2018-09-28T08:33:21.757Z,100.00
2018-09-28T08:34:45.116Z,100.00
2018-09-28T08:36:12.629Z,100.00
2018-09-28T08:37:43.734Z,100.00
2018-09-28T08:39:06.916Z,100.00
2018-09-28T08:40:33.705Z,100.00
2018-09-28T08:42:04.362Z,100.00
2018-09-28T08:43:27.830Z,100.00
2018-09-28T08:44:54.222Z,100.00
2018-09-28T08:46:25.164Z,100.00
2018-09-28T08:47:52.482Z,100.00
2018-09-28T08:49:20.040Z,100.00
2018-09-28T08:50:43.369Z,100.00
2018-09-28T08:52:10.819Z,100.00
2018-09-28T08:53:42.105Z,100.00
2018-09-28T08:55:05.306Z,100.00
2018-09-28T08:56:36.740Z,100.00
2018-09-28T08:58:03.899Z,100.00
2018-09-28T08:59:27.293Z,100.00
2018-09-28T09:00:54.642Z,100.00
2018-09-28T09:02:21.968Z,100.00
2018-09-28T09:03:49.215Z,100.00
2018-09-28T09:05:16.536Z,100.00
2018-09-28T09:06:47.873Z,100.00
2018-09-28T09:08:11.070Z,100.00
2018-09-28T09:09:38.352Z,100.00
2018-09-28T09:11:05.665Z,100.00
2018-09-28T09:12:32.865Z,100.00
2018-09-28T09:14:04.244Z,100.00
2018-09-28T09:15:31.663Z,100.00
2018-09-28T09:16:54.362Z,100.00
2018-09-28T09:18:25.755Z,100.00
2018-09-28T09:19:49.151Z,100.00
2018-09-28T09:21:16.503Z,100.00
2018-09-28T09:22:46.986Z,100.00
2018-09-28T09:24:10.264Z,100.00
2018-09-28T09:25:41.691Z,100.00
2018-09-28T09:27:04.899Z,100.00
2018-09-28T09:28:36.368Z,100.00
2018-09-28T09:29:59.930Z,100.00
2018-09-28T09:31:27.415Z,100.00
2018-09-28T09:32:58.940Z,100.00
2018-09-28T09:34:25.423Z,100.00
2018-09-28T09:35:51.905Z,100.00
2018-09-28T09:37:19.188Z,100.00
2018-09-28T09:38:46.674Z,100.00
2018-09-28T09:40:09.764Z,100.00
2018-09-28T09:41:40.721Z,100.00
2018-09-28T09:43:03.329Z,100.00
2018-09-28T09:44:34.744Z,100.00
2018-09-28T09:45:56.575Z,100.00
2018-09-28T09:47:23.886Z,98.32
2018-09-28T09:48:55.223Z,94.34
2018-09-28T09:50:22.722Z,94.31
2018-09-28T09:51:49.505Z,97.48
2018-09-28T09:53:16.313Z,95.95
2018-09-28T09:54:39.522Z,94.22
2018-09-28T09:56:10.179Z,96.14
2018-09-28T09:57:32.882Z,96.03
2018-09-28T09:59:04.199Z,97.47
2018-09-28T10:00:31.805Z,96.75
2018-09-28T10:01:59.154Z,94.72
2018-09-28T10:03:21.873Z,96.43
2018-09-28T10:04:53.298Z,97.01
2018-09-28T10:06:16.669Z,99.67
2018-09-28T10:07:47.267Z,98.20
2018-09-28T10:09:14.526Z,97.51
2018-09-28T10:10:37.500Z,98.38
2018-09-28T10:12:09.815Z,96.36
2018-09-28T10:13:31.458Z,98.33
2018-09-28T10:15:02.187Z,98.94
2018-09-28T10:16:28.694Z,100.00
2018-09-28T10:17:55.858Z,100.00
2018-09-28T10:19:19.357Z,98.30
2018-09-28T10:20:50.591Z,97.03
2018-09-28T10:22:17.238Z,98.04
2018-09-28T10:23:40.383Z,98.64
2018-09-28T10:25:11.714Z,100.00
2018-09-28T10:26:38.246Z,99.75
2018-09-28T10:28:06.044Z,96.38
2018-09-28T10:29:29.360Z,96.64
2018-09-28T10:30:56.742Z,94.73
2018-09-28T10:32:23.269Z,91.48
2018-09-28T10:33:49.922Z,93.51
2018-09-28T10:35:17.278Z,92.52
2018-09-28T10:36:48.616Z,95.59
2018-09-28T10:38:16.068Z,93.91
2018-09-28T10:39:38.725Z,93.08
2018-09-28T10:41:09.935Z,93.01
2018-09-28T10:42:37.210Z,93.99
2018-09-28T10:43:59.911Z,91.85
2018-09-28T10:45:30.715Z,90.15
2018-09-28T10:46:57.164Z,88.96
2018-09-28T10:48:25.460Z,91.22
2018-09-28T10:49:47.911Z,83.51
2018-09-28T10:51:15.210Z,84.59
2018-09-28T10:52:42.733Z,85.64
2018-09-28T10:54:13.179Z,89.01
2018-09-28T10:55:36.493Z,88.24
2018-09-28T10:57:03.897Z,86.40
2018-09-28T10:58:34.595Z,86.44
2018-09-28T11:00:02.027Z,87.81
2018-09-28T11:01:28.634Z,91.99
2018-09-28T11:02:51.196Z,90.97
2018-09-28T11:04:22.855Z,92.44
2018-09-28T11:05:50.154Z,90.75
2018-09-28T11:07:17.195Z,91.70
2018-09-28T11:08:40.003Z,92.47
2018-09-28T11:10:11.123Z,90.10
2018-09-28T11:11:34.406Z,87.50
2018-09-28T11:13:04.987Z,86.89
2018-09-28T11:14:28.441Z,79.08
2018-09-28T11:15:55.934Z,79.19
2018-09-28T11:17:27.369Z,76.77
2018-09-28T11:18:54.387Z,78.93
2018-09-28T11:20:21.763Z,78.64
2018-09-28T11:21:48.405Z,77.18
2018-09-28T11:23:15.862Z,77.59
2018-09-28T11:24:39.626Z,78.92
2018-09-28T11:26:11.024Z,76.79
2018-09-28T11:27:34.292Z,76.96
2018-09-28T11:29:01.618Z,74.57
2018-09-28T11:30:33.010Z,72.92
2018-09-28T11:32:02.443Z,74.20
2018-09-28T11:33:23.209Z,74.43
2018-09-28T11:34:50.820Z,74.34
2018-09-28T11:36:18.164Z,73.20
2018-09-28T11:37:49.754Z,72.91
2018-09-28T11:39:13.226Z,70.31
2018-09-28T11:40:44.564Z,72.47
2018-09-28T11:42:12.243Z,73.18
2018-09-28T11:43:39.477Z,71.67
2018-09-28T11:45:03.126Z,72.72
2018-09-28T11:46:34.431Z,73.50
2018-09-28T11:48:01.863Z,73.23
2018-09-28T11:49:25.242Z,73.77
2018-09-28T11:50:56.609Z,73.19
2018-09-28T11:52:20.257Z,73.77
2018-09-28T11:53:46.629Z,74.28
2018-09-28T11:55:17.161Z,74.82
2018-09-28T11:56:45.469Z,73.72
2018-09-28T11:58:11.563Z,71.80
2018-09-28T11:59:38.864Z,71.06
2018-09-28T12:01:06.027Z,69.85
2018-09-28T12:02:33.487Z,70.47
2018-09-28T12:04:01.041Z,72.03
2018-09-28T12:05:28.660Z,72.22
2018-09-28T12:06:56.142Z,72.75
2018-09-28T12:08:19.599Z,71.72
2018-09-28T12:09:50.999Z,71.29
2018-09-28T12:11:18.545Z,70.89
2018-09-28T12:12:45.837Z,72.75
2018-09-28T12:14:12.831Z,72.25
2018-09-28T12:15:36.387Z,71.28
2018-09-28T12:17:03.709Z,70.20
2018-09-28T12:18:34.292Z,70.97
2018-09-28T12:20:01.729Z,72.03
2018-09-28T12:21:24.424Z,72.06
2018-09-28T12:22:55.807Z,72.73
2018-09-28T12:24:19.304Z,73.49
2018-09-28T12:25:46.140Z,72.98
2018-09-28T12:27:17.597Z,71.51
2018-09-28T12:28:41.054Z,71.29
2018-09-28T12:30:12.686Z,70.88
2018-09-28T12:31:35.609Z,68.75
2018-09-28T12:33:06.319Z,67.09
2018-09-28T12:34:33.094Z,66.57
2018-09-28T12:35:56.588Z,67.41
2018-09-28T12:37:24.241Z,70.15
2018-09-28T12:38:51.734Z,69.46
2018-09-28T12:40:18.473Z,67.08
2018-09-28T12:41:50.078Z,67.04
2018-09-28T12:43:13.470Z,66.12
2018-09-28T12:44:44.838Z,66.48
2018-09-28T12:46:11.956Z,65.66
2018-09-28T12:47:38.807Z,67.05
2018-09-28T12:49:01.367Z,67.14
2018-09-28T12:50:28.927Z,67.74
2018-09-28T12:52:00.578Z,68.33
2018-09-28T12:53:28.992Z,65.67
2018-09-28T12:54:51.540Z,67.21
2018-09-28T12:56:23.145Z,67.11
2018-09-28T12:57:49.512Z,66.12
2018-09-28T12:59:16.863Z,67.12
2018-09-28T13:00:44.357Z,67.45
2018-09-28T13:02:11.695Z,68.98
2018-09-28T13:03:39.125Z,67.36
2018-09-28T13:05:01.502Z,67.55
2018-09-28T13:06:29.081Z,68.05
2018-09-28T13:07:56.687Z,69.36
2018-09-28T13:09:27.205Z,68.76
2018-09-28T13:10:49.614Z,67.84
2018-09-28T13:12:16.551Z,67.34
2018-09-28T13:13:43.900Z,66.93
2018-09-28T13:15:10.558Z,66.79
2018-09-28T13:16:41.781Z,67.14
2018-09-28T13:18:04.678Z,62.58
2018-09-28T13:19:31.904Z,61.49
2018-09-28T13:21:04.429Z,61.17
2018-09-28T13:22:29.900Z,63.74
2018-09-28T13:23:56.522Z,64.70
2018-09-28T13:25:23.988Z,64.24
2018-09-28T13:26:51.438Z,63.81
2018-09-28T13:28:14.828Z,63.82
2018-09-28T13:29:46.404Z,65.22
2018-09-28T13:31:09.737Z,63.34
2018-09-28T13:32:40.935Z,62.09
2018-09-28T13:34:09.308Z,62.58
2018-09-28T13:35:34.599Z,62.38
2018-09-28T13:36:58.231Z,60.31
2018-09-28T13:38:24.831Z,58.89
2018-09-28T13:39:55.207Z,60.84
2018-09-28T13:41:18.599Z,62.34
2018-09-28T13:42:50.166Z,62.00
2018-09-28T13:44:17.658Z,61.81
2018-09-28T13:45:44.810Z,62.49
2018-09-28T13:47:11.482Z,63.85
2018-09-28T13:48:37.940Z,64.01
2018-09-28T13:50:01.549Z,65.11
2018-09-28T13:51:32.926Z,64.74
2018-09-28T13:52:56.673Z,63.23
2018-09-28T13:54:23.288Z,63.28
2018-09-28T13:55:50.857Z,64.09
2018-09-28T13:57:22.345Z,64.77
2018-09-28T13:58:45.715Z,65.91
2018-09-28T14:00:17.202Z,67.05
2018-09-28T14:01:44.635Z,68.58
2018-09-28T14:03:07.413Z,69.09
2018-09-28T14:04:34.682Z,68.03
2018-09-28T14:06:02.130Z,67.66
2018-09-28T14:07:29.666Z,66.52
2018-09-28T14:09:01.155Z,66.88
2018-09-28T14:10:24.461Z,68.42
2018-09-28T14:11:50.961Z,69.22
2018-09-28T14:13:18.338Z,70.50
2018-09-28T14:14:45.845Z,69.79
2018-09-28T14:16:17.198Z,70.78
2018-09-28T14:17:39.700Z,72.14
2018-09-28T14:19:06.363Z,73.92
2018-09-28T14:20:33.826Z,73.13
2018-09-28T14:22:04.748Z,73.14
2018-09-28T14:23:32.313Z,74.28
2018-09-28T14:24:58.961Z,73.97
2018-09-28T14:26:21.265Z,74.00
2018-09-28T14:27:48.774Z,74.93
2018-09-28T14:29:20.070Z,74.78
2018-09-28T14:30:43.648Z,75.11
2018-09-28T14:32:11.042Z,74.53
2018-09-28T14:33:42.552Z,74.69
2018-09-28T14:35:05.879Z,76.03
2018-09-28T14:36:36.367Z,77.34
2018-09-28T14:38:03.619Z,79.01
2018-09-28T14:39:26.938Z,79.77
2018-09-28T14:40:54.258Z,81.05
2018-09-28T14:42:25.767Z,82.90
2018-09-28T14:43:53.139Z,80.74
2018-09-28T14:45:16.518Z,79.50
2018-09-28T14:46:44.020Z,78.89
2018-09-28T14:48:15.568Z,77.83
2018-09-28T14:49:42.933Z,76.70
2018-09-28T14:51:05.614Z,77.42
2018-09-28T14:52:37.292Z,77.91
2018-09-28T14:54:03.586Z,77.65
2018-09-28T14:55:26.789Z,78.13
2018-09-28T14:56:58.356Z,78.65
2018-09-28T14:58:25.847Z,79.23
2018-09-28T14:59:53.231Z,80.00
2018-09-28T15:01:16.758Z,81.09
2018-09-28T15:02:47.230Z,81.11
2018-09-28T15:04:14.041Z,80.32
2018-09-28T15:05:37.457Z,79.37
2018-09-28T15:07:04.843Z,79.06
2018-09-28T15:08:32.280Z,79.36
2018-09-28T15:10:03.480Z,79.34
2018-09-28T15:11:26.899Z,77.60
2018-09-28T15:12:54.451Z,76.45
2018-09-28T15:14:21.923Z,76.45
2018-09-28T15:15:49.336Z,76.92
2018-09-28T15:18:48.916Z,75.56
2018-09-28T15:20:15.131Z,75.70
2018-09-28T15:21:38.502Z,76.50
2018-09-28T15:23:09.896Z,77.80
2018-09-28T15:24:33.165Z,77.52
2018-09-28T15:26:00.742Z,76.31
2018-09-28T15:27:28.123Z,75.07
2018-09-28T15:28:58.514Z,76.13
2018-09-28T15:30:25.889Z,75.11
2018-09-28T15:31:48.650Z,74.56
2018-09-28T15:33:20.031Z,76.08
2018-09-28T15:34:46.739Z,75.85
2018-09-28T15:36:10.187Z,77.02
2018-09-28T15:37:37.612Z,77.33
2018-09-28T15:39:04.916Z,78.11
2018-09-28T15:40:32.240Z,79.39
2018-09-28T15:42:03.531Z,78.57
2018-09-28T15:43:26.106Z,78.41
2018-09-28T15:44:57.470Z,79.42
2018-09-28T15:46:20.916Z,80.06
2018-09-28T15:47:52.386Z,80.98
2018-09-28T15:49:19.398Z,81.48
2018-09-28T15:50:46.831Z,82.28
2018-09-28T15:52:09.421Z,82.46
2018-09-28T15:53:36.837Z,82.92
2018-09-28T15:55:08.308Z,83.97
2018-09-28T15:56:30.815Z,83.87
2018-09-28T15:58:02.269Z,83.96
2018-09-28T15:59:29.704Z,84.17
2018-09-28T16:00:53.108Z,84.65
2018-09-28T16:02:24.647Z,85.06
2018-09-28T16:03:48.062Z,84.82
2018-09-28T16:05:19.522Z,85.27
2018-09-28T16:06:42.992Z,86.38
2018-09-28T16:08:09.901Z,86.11
2018-09-28T16:09:37.160Z,86.94
2018-09-28T16:11:03.866Z,87.17
2018-09-28T16:12:31.340Z,88.37
2018-09-28T16:13:58.766Z,88.99
2018-09-28T16:15:26.030Z,90.49
2018-09-28T16:16:53.523Z,91.03
2018-09-28T16:18:23.920Z,90.64
2018-09-28T16:19:51.490Z,90.67
2018-09-28T16:21:14.841Z,90.57
2018-09-28T16:22:41.299Z,90.74
2018-09-28T16:24:12.575Z,90.91
2018-09-28T16:25:39.479Z,91.24
2018-09-28T16:27:02.883Z,91.58
2018-09-28T16:28:33.420Z,91.22
2018-09-28T16:30:01.076Z,90.14
2018-09-28T16:31:27.570Z,90.12
2018-09-28T16:32:50.966Z,90.92
2018-09-28T16:34:18.320Z,91.09
2018-09-28T16:35:45.765Z,92.30
2018-09-28T16:37:16.994Z,92.41
2018-09-28T16:38:43.895Z,92.79
2018-09-28T16:40:11.308Z,93.74
2018-09-28T16:41:37.737Z,93.72
2018-09-28T16:43:01.068Z,93.98
2018-09-28T16:44:32.407Z,94.14
2018-09-28T16:45:58.594Z,94.46
2018-09-28T16:47:21.983Z,94.67
2018-09-28T16:48:52.490Z,95.30
2018-09-28T16:50:14.943Z,95.60
2018-09-28T16:51:45.067Z,96.83
2018-09-28T16:53:12.132Z,96.90
2018-09-28T16:54:35.314Z,97.19
2018-09-28T16:56:01.964Z,97.37
2018-09-28T16:57:29.376Z,98.34
2018-09-28T16:59:00.958Z,100.00
2018-09-28T17:00:28.343Z,100.00
2018-09-28T17:01:51.828Z,100.00
2018-09-28T17:03:23.278Z,100.00
2018-09-28T17:04:46.708Z,100.00
2018-09-28T17:06:17.990Z,100.00
2018-09-28T17:07:41.435Z,100.00
2018-09-28T17:09:12.712Z,100.00
2018-09-28T17:10:35.950Z,100.00
2018-09-28T17:12:01.995Z,100.00
2018-09-28T17:13:28.457Z,100.00
2018-09-28T17:14:54.503Z,100.00
2018-09-28T17:16:21.950Z,100.00
2018-09-28T17:17:48.395Z,100.00
2018-09-28T17:19:18.967Z,100.00
2018-09-28T17:20:42.173Z,100.00
2018-09-28T17:22:13.652Z,100.00
2018-09-28T17:23:36.494Z,100.00
2018-09-28T17:25:07.895Z,100.00
2018-09-28T17:26:31.461Z,100.00
2018-09-28T17:28:01.667Z,100.00
2018-09-28T17:29:25.198Z,100.00
2018-09-28T17:30:52.660Z,100.00
2018-09-28T17:32:20.044Z,100.00
2018-09-28T17:33:47.656Z,100.00
2018-09-28T17:35:17.875Z,100.00
2018-09-28T17:36:44.244Z,100.00
2018-09-28T17:38:10.846Z,100.00
2018-09-28T17:39:36.652Z,100.00
2018-09-28T17:41:04.093Z,100.00
2018-09-28T17:42:30.249Z,100.00
2018-09-28T17:43:57.766Z,100.00
2018-09-28T17:45:24.991Z,100.00
2018-09-28T17:46:48.412Z,100.00
2018-09-28T17:48:21.696Z,100.00
2018-09-28T17:49:42.774Z,100.00
2018-09-28T17:51:09.565Z,100.00
2018-09-28T17:52:39.565Z,100.00
2018-09-28T17:54:06.948Z,100.00
2018-09-28T17:55:34.436Z,100.00
2018-09-28T17:57:01.967Z,100.00
2018-09-28T17:58:25.399Z,100.00
2018-09-28T17:59:56.888Z,100.00
2018-09-28T18:01:20.387Z,100.00
2018-09-28T18:02:51.685Z,100.00
2018-09-28T18:04:14.370Z,100.00
2018-09-28T18:05:41.089Z,100.00
2018-09-28T18:07:12.376Z,100.00
2018-09-28T18:08:35.435Z,100.00
2018-09-28T18:10:02.909Z,100.00
2018-09-28T18:11:29.337Z,100.00
2018-09-28T18:12:56.747Z,100.00
2018-09-28T18:14:24.102Z,100.00
2018-09-28T18:15:51.560Z,100.00
2018-09-28T18:17:17.921Z,100.00
2018-09-28T18:18:44.793Z,100.00
2018-09-28T18:20:15.819Z,100.00
2018-09-28T18:21:43.025Z,100.00
2018-09-28T18:23:05.678Z,100.00
2018-09-28T18:24:37.090Z,100.00
2018-09-28T18:26:04.455Z,100.00
2018-09-28T18:27:31.820Z,100.00
2018-09-28T18:28:53.905Z,100.00
2018-09-28T18:30:23.882Z,100.00
2018-09-28T18:31:47.133Z,100.00
2018-09-28T18:33:14.558Z,100.00
2018-09-28T18:34:47.660Z,100.00
2018-09-28T18:36:11.856Z,100.00
2018-09-28T18:37:35.148Z,100.00
2018-09-28T18:39:02.515Z,100.00
2018-09-28T18:40:29.753Z,100.00
2018-09-28T18:42:01.299Z,100.00
2018-09-28T18:43:28.428Z,100.00
2018-09-28T18:44:49.680Z,100.00
2018-09-28T18:46:20.074Z,100.00
2018-09-28T18:47:47.487Z,100.00
2018-09-28T18:49:14.790Z,100.00
2018-09-28T18:50:37.487Z,100.00
2018-09-28T18:52:04.664Z,100.00
2018-09-28T18:53:36.157Z,100.00
2018-09-28T18:54:59.321Z,100.00
2018-09-28T18:56:25.467Z,100.00
2018-09-28T18:57:52.901Z,100.00
2018-09-28T18:59:19.129Z,100.00
2018-09-28T19:02:17.537Z,100.00
2018-09-28T19:03:45.077Z,100.00
2018-09-28T19:05:11.123Z,100.00
2018-09-28T19:06:33.599Z,100.00
2018-09-28T19:08:04.940Z,100.00
2018-09-28T19:09:32.388Z,100.00
2018-09-28T19:10:55.818Z,100.00
2018-09-28T19:12:23.247Z,100.00
2018-09-28T19:13:49.774Z,100.00
2018-09-28T19:15:17.190Z,100.00
2018-09-28T19:16:44.506Z,100.00
2018-09-28T19:18:11.989Z,100.00
2018-09-28T19:19:42.663Z,100.00
2018-09-28T19:21:10.064Z,100.00
2018-09-28T19:22:37.551Z,100.00
2018-09-28T19:24:00.951Z,100.00
2018-09-28T19:25:28.355Z,100.00
2018-09-28T19:26:58.322Z,100.00
2018-09-28T19:28:21.819Z,100.00
2018-09-28T19:29:52.961Z,100.00
2018-09-28T19:31:20.250Z,100.00
2018-09-28T19:32:43.696Z,100.00
2018-09-28T19:34:14.447Z,100.00
2018-09-28T19:35:40.611Z,100.00
2018-09-28T19:37:03.993Z,100.00
2018-09-28T19:38:34.302Z,100.00
2018-09-28T19:39:57.395Z,100.00
2018-09-28T19:41:23.718Z,100.00
2018-09-28T19:42:55.185Z,100.00
2018-09-28T19:44:21.369Z,100.00
2018-09-28T19:45:44.648Z,100.00
2018-09-28T19:47:12.019Z,100.00
2018-09-28T19:48:39.404Z,100.00
2018-09-28T19:50:06.813Z,100.00
2018-09-28T19:51:38.110Z,100.00
2018-09-28T19:53:01.450Z,100.00
2018-09-28T19:54:27.729Z,100.00
2018-09-28T19:55:59.023Z,100.00
2018-09-28T19:57:26.499Z,100.00
2018-09-28T19:58:52.645Z,100.00
2018-09-28T20:00:14.921Z,100.00
2018-09-28T20:01:41.963Z,100.00
2018-09-28T20:03:13.311Z,100.00
2018-09-28T20:04:36.202Z,100.00
2018-09-28T20:06:02.539Z,100.00
2018-09-28T20:07:32.570Z,100.00
2018-09-28T20:08:59.933Z,100.00
2018-09-28T20:10:23.250Z,100.00
2018-09-28T20:11:50.779Z,100.00
2018-09-28T20:13:18.085Z,100.00
2018-09-28T20:14:49.338Z,100.00
2018-09-28T20:16:11.858Z,100.00
2018-09-28T20:17:43.208Z,100.00
2018-09-28T20:19:06.657Z,100.00
2018-09-28T20:20:33.829Z,100.00
2018-09-28T20:22:05.144Z,100.00
2018-09-28T20:23:32.628Z,100.00
2018-09-28T20:24:59.987Z,100.00
2018-09-28T20:26:22.214Z,100.00
2018-09-28T20:27:48.632Z,100.00
2018-09-28T20:29:15.943Z,100.00
2018-09-28T20:30:43.366Z,100.00
2018-09-28T20:32:10.556Z,100.00
2018-09-28T20:33:41.943Z,100.00
2018-09-28T20:35:05.172Z,100.00